Time;durP1;ratioP1;P1;durP2;ratioP2;P2;SDS_P1;SDS_P2;PMS_P1;PMS_P2;Temp;Humidity;BMP_temperature;BMP_pressure;BME280_temperature;BME280_humidity;BME280_pressure;Samples;Min_cycle;Max_cycle;Signal;HPM_P1;HPM_P2
2021/07/21 00:02:16;;;;;;;23.63;12.07;;;;;;;15.99;77.16;102358.53;4950221;28;20027;-49
2021/07/21 00:04:41;;;;;;;26.42;12.85;;;;;;;16.06;76.90;102360.41;4940675;28;20114;-48
2021/07/21 00:07:15;;;;;;;22.70;11.45;;;;;;;16.13;76.37;102364.00;4949844;28;20054;-51
2021/07/21 00:09:40;;;;;;;21.50;10.18;;;;;;;16.15;76.43;102359.66;4947090;28;21324;-50
2021/07/21 00:14:51;;;;;;;20.35;10.80;;;;;;;16.00;77.11;102352.41;4940040;28;20066;-49
2021/07/21 00:17:19;;;;;;;24.95;12.18;;;;;;;16.07;76.87;102361.28;4945271;28;20027;-51
2021/07/21 00:20:05;;;;;;;25.58;12.02;;;;;;;16.03;76.47;102363.00;4942272;28;20113;-51
2021/07/21 00:22:31;;;;;;;22.13;10.65;;;;;;;15.88;77.08;102360.13;4926333;28;20067;-50
2021/07/21 00:24:56;;;;;;;21.85;10.20;;;;;;;15.88;77.37;102364.50;4942721;28;20145;-53
2021/07/21 00:27:23;;;;;;;24.73;12.63;;;;;;;15.89;77.66;102367.16;4946092;28;20135;-51
2021/07/21 00:29:49;;;;;;;24.20;11.85;;;;;;;15.87;77.57;102355.72;4940470;28;20429;-52
2021/07/21 00:32:14;;;;;;;21.70;11.05;;;;;;;15.87;77.67;102357.47;4936686;28;20545;-50
2021/07/21 00:34:39;;;;;;;22.65;11.68;;;;;;;15.79;77.65;102360.91;4943732;28;20065;-50
2021/07/21 00:37:06;;;;;;;23.75;11.20;;;;;;;15.76;77.95;102358.19;4941159;28;20865;-49
2021/07/21 00:39:32;;;;;;;19.80;10.50;;;;;;;15.75;77.97;102364.31;4954068;28;20054;-49
2021/07/21 00:41:57;;;;;;;21.98;11.02;;;;;;;15.71;78.03;102362.50;4939403;28;20045;-48
2021/07/21 00:44:23;;;;;;;24.88;10.95;;;;;;;15.67;78.12;102365.97;4942473;28;20031;-52
2021/07/21 00:46:48;;;;;;;22.90;11.23;;;;;;;15.65;78.32;102367.66;4943232;28;20030;-51
2021/07/21 00:49:13;;;;;;;20.02;10.30;;;;;;;15.63;78.29;102360.59;4938739;28;20038;-52
2021/07/21 00:51:39;;;;;;;21.63;10.95;;;;;;;15.62;78.50;102369.34;4944924;28;20032;-50
2021/07/21 00:54:04;;;;;;;19.75;10.55;;;;;;;15.64;78.08;102367.63;4937775;28;20038;-49
2021/07/21 00:56:32;;;;;;;20.55;11.10;;;;;;;15.64;78.38;102362.38;4948820;28;20631;-48
2021/07/21 00:58:58;;;;;;;24.92;11.10;;;;;;;15.60;78.60;102371.09;4946884;28;20031;-49
2021/07/21 01:01:23;;;;;;;20.08;10.73;;;;;;;15.56;78.59;102367.50;4938733;28;20066;-49
2021/07/21 01:03:49;;;;;;;22.27;10.90;;;;;;;15.52;79.04;102362.13;4942398;28;20110;-52
2021/07/21 01:06:14;;;;;;;21.50;11.73;;;;;;;15.47;79.21;102354.19;4935813;28;20077;-49
2021/07/21 01:08:39;;;;;;;22.50;10.52;;;;;;;15.44;79.03;102357.63;4957668;28;20122;-51
2021/07/21 01:11:26;;;;;;;25.20;11.82;;;;;;;15.41;79.46;102361.97;4940281;28;20084;-54
2021/07/21 01:14:05;;;;;;;20.42;10.55;;;;;;;15.36;79.56;102358.38;4938534;28;21081;-46
2021/07/21 01:16:33;;;;;;;23.98;11.82;;;;;;;15.32;79.52;102360.03;4950504;28;20035;-48
2021/07/21 01:19:09;;;;;;;24.70;11.38;;;;;;;15.29;80.19;102360.00;4935219;28;20031;-49
2021/07/21 01:22:00;;;;;;;22.13;11.18;;;;;;;15.25;80.39;102357.28;4941780;28;20124;-47
2021/07/21 01:25:07;;;;;;;26.63;11.60;;;;;;;15.21;80.25;102363.34;4958587;28;20061;-47
2021/07/21 01:27:36;;;;;;;23.10;11.25;;;;;;;15.17;80.22;102358.91;4940808;28;20316;-50
2021/07/21 01:30:13;;;;;;;22.75;11.10;;;;;;;15.14;80.63;102364.09;4948026;28;20537;-50
2021/07/21 01:32:40;;;;;;;23.35;11.55;;;;;;;15.10;80.79;102357.91;4929327;28;20394;-49
2021/07/21 01:35:38;;;;;;;25.42;12.30;;;;;;;15.07;80.99;102356.94;4958681;28;20526;-53
2021/07/21 01:38:14;;;;;;;25.73;12.27;;;;;;;15.09;81.08;102355.25;4928397;28;20081;-48
2021/07/21 01:40:48;;;;;;;27.48;11.70;;;;;;;15.02;81.25;102349.88;4931601;28;20443;-50
2021/07/21 01:43:23;;;;;;;25.60;11.50;;;;;;;14.99;81.55;102349.84;4963493;28;20081;-48
2021/07/21 01:45:51;;;;;;;20.20;10.80;;;;;;;14.98;81.43;102357.69;4917678;28;20037;-50
2021/07/21 01:48:18;;;;;;;25.75;11.30;;;;;;;14.96;81.69;102348.88;4958696;28;20053;-48
2021/07/21 01:50:45;;;;;;;25.77;11.93;;;;;;;14.96;81.37;102356.75;4944664;28;20748;-49
2021/07/21 01:53:11;;;;;;;24.23;10.75;;;;;;;14.95;81.73;102362.84;4950568;28;21164;-54
2021/07/21 01:55:38;;;;;;;22.33;11.25;;;;;;;14.94;81.18;102366.38;4942518;28;20598;-50
2021/07/21 01:58:05;;;;;;;24.70;12.30;;;;;;;14.93;81.48;102354.09;4931426;28;20124;-52
2021/07/21 02:00:32;;;;;;;26.00;12.38;;;;;;;14.95;81.57;102362.84;4941922;28;20046;-50
2021/07/21 02:02:59;;;;;;;24.27;11.27;;;;;;;14.97;81.29;102363.78;4943126;28;20075;-51
2021/07/21 02:05:25;;;;;;;23.38;11.48;;;;;;;14.96;81.38;102365.53;4951781;28;20050;-49
2021/07/21 02:07:51;;;;;;;23.90;11.02;;;;;;;14.94;81.31;102367.22;4942056;28;20026;-50
2021/07/21 02:10:22;;;;;;;26.10;12.40;;;;;;;14.93;81.17;102361.97;4959949;28;20035;-49
2021/07/21 02:12:56;;;;;;;26.02;12.27;;;;;;;14.80;81.94;102358.22;4941855;28;20489;-50
2021/07/21 02:15:23;;;;;;;24.88;11.20;;;;;;;14.83;81.87;102366.13;4953818;28;20019;-47
2021/07/21 02:17:49;;;;;;;23.73;11.60;;;;;;;14.80;82.20;102367.81;4941772;28;20109;-51
2021/07/21 02:20:14;;;;;;;21.17;10.88;;;;;;;14.81;82.37;102366.97;4923933;28;20058;-48
2021/07/21 02:22:42;;;;;;;22.98;11.27;;;;;;;14.80;82.13;102373.97;4934248;28;20086;-49
2021/07/21 02:25:09;;;;;;;22.60;11.05;;;;;;;14.81;81.78;102373.13;4942505;28;20612;-48
2021/07/21 02:27:35;;;;;;;23.70;11.07;;;;;;;14.78;81.92;102365.16;4940246;28;20081;-48
2021/07/21 02:30:00;;;;;;;28.02;11.73;;;;;;;14.74;81.92;102362.47;4941473;28;20130;-50
2021/07/21 02:32:31;;;;;;;27.98;12.25;;;;;;;14.71;81.96;102371.13;4928233;28;20030;-50
2021/07/21 02:34:57;;;;;;;24.90;12.07;;;;;;;14.69;82.18;102365.00;4958085;28;20077;-51
2021/07/21 02:37:24;;;;;;;25.98;12.20;;;;;;;14.68;82.20;102363.22;4943736;28;20055;-50
2021/07/21 02:39:51;;;;;;;25.48;11.52;;;;;;;14.65;82.02;102362.25;4944011;28;20088;-53
2021/07/21 02:42:17;;;;;;;29.00;11.93;;;;;;;14.64;82.66;102360.50;4942222;28;20037;-49
2021/07/21 02:44:44;;;;;;;24.90;11.40;;;;;;;14.61;82.60;102367.47;4953325;28;20035;-53
2021/07/21 02:47:10;;;;;;;27.08;12.80;;;;;;;14.58;82.50;102364.75;4942620;28;20027;-50
2021/07/21 02:49:36;;;;;;;24.58;11.50;;;;;;;14.44;82.98;102366.22;4939415;28;20047;-47
2021/07/21 02:52:09;;;;;;;27.50;12.07;;;;;;;14.54;82.77;102368.19;4943959;28;20035;-47
2021/07/21 02:54:37;;;;;;;28.42;13.38;;;;;;;14.55;82.77;102369.06;4955360;28;20051;-47
2021/07/21 02:57:29;;;;;;;26.00;12.57;;;;;;;14.52;82.59;102369.88;4941526;28;20068;-50
2021/07/21 02:59:56;;;;;;;28.83;12.70;;;;;;;14.48;82.56;102370.69;4932725;28;20047;-52
2021/07/21 03:02:23;;;;;;;26.85;12.43;;;;;;;14.45;82.75;102375.88;4941952;28;20092;-50
2021/07/21 03:04:50;;;;;;;29.27;13.32;;;;;;;14.42;82.97;102378.41;4932198;28;20027;-52
2021/07/21 03:07:16;;;;;;;30.30;13.75;;;;;;;14.45;82.81;102372.38;4928491;28;20497;-48
2021/07/21 03:09:42;;;;;;;32.80;14.25;;;;;;;14.42;82.87;102381.03;4921304;28;20415;-49
2021/07/21 03:12:08;;;;;;;29.58;12.90;;;;;;;14.34;83.14;102377.31;4960361;28;20540;-47
2021/07/21 03:14:36;;;;;;;26.77;13.27;;;;;;;14.33;83.27;102379.94;4922935;28;20043;-48
2021/07/21 03:17:03;;;;;;;27.65;12.65;;;;;;;14.32;83.08;102386.91;4927464;28;20063;-49
2021/07/21 03:19:31;;;;;;;31.88;13.23;;;;;;;14.31;83.15;102382.50;4932125;28;20817;-50
2021/07/21 03:21:56;;;;;;;27.70;12.05;;;;;;;14.31;83.19;102386.88;4934557;28;21043;-51
2021/07/21 03:24:23;;;;;;;35.30;15.00;;;;;;;14.28;83.30;102392.03;4953313;28;20112;-50
2021/07/21 03:26:50;;;;;;;29.63;13.52;;;;;;;14.26;83.58;102391.13;4939288;28;20059;-53
2021/07/21 03:29:17;;;;;;;30.42;13.15;;;;;;;14.24;83.34;102383.22;4932755;28;20031;-50
2021/07/21 03:31:42;;;;;;;31.42;13.60;;;;;;;14.23;83.74;102395.47;4922200;28;20027;-49
2021/07/21 03:34:09;;;;;;;29.58;13.85;;;;;;;14.22;83.81;102392.78;4944124;28;20403;-50
2021/07/21 03:36:42;;;;;;;30.88;13.13;;;;;;;14.21;83.74;102391.00;4926975;28;20035;-51
2021/07/21 03:39:10;;;;;;;35.22;15.07;;;;;;;14.20;83.99;102382.28;4932426;28;20038;-49
2021/07/21 03:41:36;;;;;;;33.10;14.32;;;;;;;14.18;84.08;102383.97;4930416;28;20088;-54
2021/07/21 03:44:03;;;;;;;34.40;14.75;;;;;;;14.16;84.13;102390.91;4924452;28;20384;-52
2021/07/21 03:46:29;;;;;;;31.95;14.15;;;;;;;14.14;84.47;102384.78;4954609;28;20329;-49
2021/07/21 03:48:57;;;;;;;32.78;14.00;;;;;;;14.09;84.66;102381.13;4951691;28;20514;-53
2021/07/21 03:51:22;;;;;;;29.35;13.35;;;;;;;14.11;84.44;102375.94;4927340;28;20032;-49
2021/07/21 03:53:48;;;;;;;28.20;12.60;;;;;;;14.13;84.30;102382.09;4930395;28;20035;-47
2021/07/21 03:56:13;;;;;;;31.45;13.35;;;;;;;14.15;84.23;102377.75;4932040;28;20023;-51
2021/07/21 03:58:38;;;;;;;33.28;14.18;;;;;;;14.14;84.30;102381.25;4926576;28;20497;-49
2021/07/21 04:01:04;;;;;;;29.60;14.38;;;;;;;14.20;84.45;102384.03;4943613;28;20062;-52
2021/07/21 04:03:30;;;;;;;30.90;12.77;;;;;;;14.23;84.36;102378.81;4948230;28;20043;-52
2021/07/21 04:05:56;;;;;;;31.38;14.38;;;;;;;14.25;84.36;102374.50;4921625;28;20512;-53
2021/07/21 04:08:22;;;;;;;33.30;13.63;;;;;;;14.28;84.52;102377.19;4934420;28;20031;-50
2021/07/21 04:10:50;;;;;;;29.33;12.73;;;;;;;14.31;84.21;102379.00;4933057;28;20067;-49
2021/07/21 04:13:16;;;;;;;33.17;14.60;;;;;;;14.32;84.08;102378.16;4954361;28;20026;-51
2021/07/21 04:15:41;;;;;;;32.22;13.85;;;;;;;14.37;83.89;102382.69;4930633;28;20038;-47
2021/07/21 04:18:08;;;;;;;35.03;14.90;;;;;;;14.40;83.76;102373.97;4922526;28;20053;-49
2021/07/21 04:20:33;;;;;;;33.72;14.85;;;;;;;14.45;83.50;102377.59;4941366;28;20471;-48
2021/07/21 04:22:59;;;;;;;31.48;14.20;;;;;;;14.49;83.33;102379.44;4955423;28;20030;-48
2021/07/21 04:25:26;;;;;;;35.10;14.30;;;;;;;14.54;83.06;102375.16;4952057;28;20057;-47
2021/07/21 04:27:52;;;;;;;34.05;14.77;;;;;;;14.59;83.04;102379.66;4935381;28;20058;-50
2021/07/21 04:30:17;;;;;;;38.10;15.30;;;;;;;14.65;82.89;102378.00;4930660;28;20400;-50
2021/07/21 04:32:43;;;;;;;31.65;14.65;;;;;;;14.72;82.70;102383.41;4923735;28;20393;-51
2021/07/21 04:35:12;;;;;;;28.95;14.05;;;;;;;14.78;82.64;102383.53;4925374;28;20028;-51
2021/07/21 04:37:41;;;;;;;37.67;14.48;;;;;;;14.88;82.08;102392.50;4936959;28;20035;-51
2021/07/21 04:40:09;;;;;;;31.52;14.35;;;;;;;14.96;81.84;102393.53;4945050;28;20118;-47
2021/07/21 04:42:34;;;;;;;29.95;13.82;;;;;;;15.06;81.81;102390.25;4949786;28;20084;-48
2021/07/21 04:45:00;;;;;;;26.98;13.63;;;;;;;15.17;81.83;102386.06;4952198;28;20043;-53
2021/07/21 04:47:25;;;;;;;29.15;13.57;;;;;;;15.28;81.35;102396.75;4951564;28;20019;-47
2021/07/21 04:49:51;;;;;;;29.02;14.13;;;;;;;15.58;80.81;102397.34;4952684;28;20038;-48
2021/07/21 04:52:18;;;;;;;28.27;14.15;;;;;;;16.00;79.44;102393.63;4937378;28;20141;-47
2021/07/21 04:54:44;;;;;;;32.95;14.32;;;;;;;16.43;77.45;102398.66;4947033;28;20071;-51
2021/07/21 04:57:10;;;;;;;26.75;13.80;;;;;;;16.81;76.20;102399.19;4947334;28;20778;-47
2021/07/21 04:59:36;;;;;;;27.35;13.38;;;;;;;17.36;74.40;102395.38;4953738;28;20025;-52
2021/07/21 05:02:01;;;;;;;23.80;12.65;;;;;;;17.88;72.52;102402.88;4944321;28;20039;-50
2021/07/21 05:04:27;;;;;;;25.45;13.15;;;;;;;18.61;68.90;102398.97;4949277;28;20031;-49
2021/07/21 05:06:52;;;;;;;22.00;12.60;;;;;;;19.07;67.22;102407.94;4952590;28;20570;-50
2021/07/21 05:09:17;;;;;;;22.38;12.18;;;;;;;19.70;64.96;102414.25;4954189;28;20042;-48
2021/07/21 05:11:43;;;;;;;21.85;12.77;;;;;;;20.07;62.72;102400.09;4947408;28;20084;-51
2021/07/21 05:14:08;;;;;;;21.67;12.05;;;;;;;20.21;62.43;102416.84;4951618;28;20035;-49
2021/07/21 05:16:35;;;;;;;21.60;12.65;;;;;;;20.30;62.58;102409.78;4955768;28;20056;-53
2021/07/21 05:19:01;;;;;;;20.60;12.23;;;;;;;19.97;63.44;102416.00;4943667;28;20306;-48
2021/07/21 05:21:31;;;;;;;21.73;12.45;;;;;;;19.58;64.29;102424.84;4930139;28;20566;-48
2021/07/21 05:23:56;;;;;;;20.65;12.73;;;;;;;19.13;66.43;102421.19;4966993;28;20039;-52
2021/07/21 05:26:21;;;;;;;24.88;13.77;;;;;;;18.74;67.75;102426.31;4943857;28;20062;-52
2021/07/21 05:28:47;;;;;;;26.30;14.20;;;;;;;18.45;68.99;102420.88;4956429;28;20058;-49
2021/07/21 05:31:12;;;;;;;25.65;14.10;;;;;;;18.25;68.89;102421.63;4935044;28;20030;-47
2021/07/21 05:33:38;;;;;;;23.80;14.20;;;;;;;18.17;68.98;102422.47;4944779;28;20023;-52
2021/07/21 05:36:05;;;;;;;24.85;13.70;;;;;;;18.11;70.47;102432.97;4948521;28;20351;-50
2021/07/21 05:38:31;;;;;;;27.83;14.98;;;;;;;18.17;69.35;102428.63;4938788;28;20023;-52
2021/07/21 05:40:56;;;;;;;28.63;14.45;;;;;;;18.16;70.21;102436.53;4946669;28;20042;-49
2021/07/21 05:43:22;;;;;;;26.15;15.38;;;;;;;18.10;68.71;102429.47;4946850;28;20059;-53
2021/07/21 05:45:48;;;;;;;29.23;15.20;;;;;;;18.12;69.58;102427.69;4945233;28;20112;-53
2021/07/21 05:48:14;;;;;;;31.52;15.05;;;;;;;18.00;69.83;102434.63;4949977;28;20054;-48
2021/07/21 05:50:39;;;;;;;31.08;16.13;;;;;;;17.93;70.24;102431.06;4950183;28;20548;-49
2021/07/21 05:53:05;;;;;;;27.10;16.02;;;;;;;18.08;70.19;102440.84;4945369;28;20035;-46
2021/07/21 05:55:31;;;;;;;30.50;15.23;;;;;;;18.13;69.92;102433.84;4945811;28;20156;-50
2021/07/21 05:57:56;;;;;;;33.15;15.52;;;;;;;18.20;69.99;102428.63;4944125;28;20437;-48
2021/07/21 06:00:22;;;;;;;31.70;15.80;;;;;;;18.47;69.57;102432.31;4940455;28;20031;-49
2021/07/21 06:02:47;;;;;;;29.08;16.23;;;;;;;19.09;66.30;102432.59;4958065;28;20486;-49
2021/07/21 06:05:13;;;;;;;27.23;15.63;;;;;;;19.89;63.74;102434.53;4944928;28;20030;-48
2021/07/21 06:07:38;;;;;;;25.13;14.10;;;;;;;20.79;61.36;102434.38;4945060;28;20023;-48
2021/07/21 06:10:05;;;;;;;24.02;14.15;;;;;;;21.76;57.33;102436.47;4932894;28;20126;-50
2021/07/21 06:12:30;;;;;;;26.80;14.23;;;;;;;22.25;55.14;102440.47;4950086;28;20054;-51
2021/07/21 06:14:55;;;;;;;28.17;14.07;;;;;;;22.97;53.34;102439.66;4944414;28;20035;-51
2021/07/21 06:17:21;;;;;;;22.60;13.27;;;;;;;23.31;53.83;102448.94;4949679;28;20039;-52
2021/07/21 06:19:47;;;;;;;22.92;14.07;;;;;;;24.25;48.68;102430.56;4941254;28;20050;-48
2021/07/21 06:22:14;;;;;;;20.92;12.80;;;;;;;24.69;49.04;102431.50;4943140;28;20511;-51
2021/07/21 06:24:39;;;;;;;20.25;13.90;;;;;;;25.31;46.02;102438.16;4948648;28;20732;-52
2021/07/21 06:27:05;;;;;;;22.13;13.35;;;;;;;24.83;48.90;102440.94;4939254;28;20058;-54
2021/07/21 06:29:31;;;;;;;19.92;13.98;;;;;;;24.72;49.01;102442.97;4961282;28;20027;-51
2021/07/21 06:31:56;;;;;;;25.75;13.35;;;;;;;25.16;47.90;102447.38;4940690;28;20743;-50
2021/07/21 06:34:21;;;;;;;22.67;13.77;;;;;;;25.57;46.16;102449.13;4953615;28;20708;-49
2021/07/21 06:36:47;;;;;;;25.20;13.02;;;;;;;26.11;43.22;102451.31;4941158;28;20041;-50
2021/07/21 06:39:12;;;;;;;19.77;12.68;;;;;;;25.76;45.71;102458.44;4944821;28;20120;-50
2021/07/21 06:41:38;;;;;;;21.20;12.85;;;;;;;26.47;44.58;102454.84;4943876;28;20520;-51
2021/07/21 06:44:04;;;;;;;24.67;13.65;;;;;;;26.35;45.10;102457.88;4949442;28;20049;-50
2021/07/21 06:46:32;;;;;;;22.33;13.40;;;;;;;26.66;42.25;102461.41;4940251;28;20191;-48
2021/07/21 06:48:58;;;;;;;22.40;13.50;;;;;;;27.18;41.62;102468.84;4926770;28;20057;-48
2021/07/21 06:51:24;;;;;;;25.52;13.23;;;;;;;26.50;44.32;102469.00;4948084;28;20559;-48
2021/07/21 06:53:49;;;;;;;26.40;13.65;;;;;;;26.66;44.42;102467.66;4945982;28;20031;-48
2021/07/21 06:56:15;;;;;;;23.58;13.57;;;;;;;26.85;45.38;102473.34;4943056;28;20462;-52
2021/07/21 06:58:41;;;;;;;20.30;12.65;;;;;;;26.95;42.50;102471.34;4945303;28;20376;-51
2021/07/21 07:01:06;;;;;;;25.17;13.57;;;;;;;27.11;41.72;102472.63;4938260;28;20039;-52
2021/07/21 07:03:32;;;;;;;18.58;12.23;;;;;;;27.14;40.59;102469.81;4943897;28;20030;-49
2021/07/21 07:05:58;;;;;;;21.60;12.27;;;;;;;26.56;41.41;102475.97;4938025;28;20330;-52
2021/07/21 07:08:24;;;;;;;21.67;12.02;;;;;;;27.00;40.22;102482.78;4943015;28;20069;-51
2021/07/21 07:10:49;;;;;;;30.90;12.02;;;;;;;26.80;42.64;102477.97;4939724;28;20110;-50
2021/07/21 07:13:14;;;;;;;24.60;12.00;;;;;;;27.31;40.07;102480.94;4942911;28;20038;-52
2021/07/21 07:15:40;;;;;;;16.45;11.75;;;;;;;27.59;41.87;102475.59;4934484;28;20035;-48
2021/07/21 07:18:06;;;;;;;18.80;11.23;;;;;;;27.89;40.68;102476.38;4939685;28;20038;-49
2021/07/21 07:20:32;;;;;;;16.80;11.10;;;;;;;27.54;38.61;102480.22;4938317;28;20451;-50
2021/07/21 07:22:58;;;;;;;19.30;11.30;;;;;;;27.75;38.31;102481.34;4940743;28;20034;-49
2021/07/21 07:25:23;;;;;;;15.57;10.80;;;;;;;27.60;38.08;102488.06;4944920;28;21078;-52
2021/07/21 07:27:48;;;;;;;19.05;11.20;;;;;;;27.50;37.63;102485.72;4929474;28;20051;-49
2021/07/21 07:30:14;;;;;;;17.25;10.10;;;;;;;27.67;41.35;102483.38;4940553;28;20494;-47
2021/07/21 07:32:41;;;;;;;16.48;10.32;;;;;;;27.58;38.49;102489.03;4943977;28;20098;-52
2021/07/21 07:35:06;;;;;;;19.83;10.40;;;;;;;27.56;37.94;102486.44;4938865;28;20026;-52
2021/07/21 07:37:32;;;;;;;14.27;10.02;;;;;;;27.78;39.17;102487.47;4942106;28;20027;-53
2021/07/21 07:39:57;;;;;;;18.35;9.45;;;;;;;27.74;40.13;102493.88;4941640;28;20398;-51
2021/07/21 07:42:22;;;;;;;20.20;9.95;;;;;;;27.75;40.65;102489.38;4937821;28;20108;-50
2021/07/21 07:44:48;;;;;;;17.92;9.80;;;;;;;28.06;41.85;102495.44;4939492;28;20039;-52
2021/07/21 07:47:13;;;;;;;14.57;9.55;;;;;;;28.13;39.38;102482.72;4945062;28;20047;-52
2021/07/21 07:49:39;;;;;;;16.17;10.43;;;;;;;28.33;37.03;102485.63;4947312;28;20474;-49
2021/07/21 07:52:05;;;;;;;14.57;10.05;;;;;;;28.31;38.38;102489.28;4945568;28;20058;-50
2021/07/21 07:54:30;;;;;;;19.27;10.82;;;;;;;27.68;38.26;102486.03;4943165;28;20110;-47
2021/07/21 07:56:56;;;;;;;15.90;10.52;;;;;;;28.43;36.61;102489.72;4932529;28;20035;-49
2021/07/21 07:59:21;;;;;;;16.67;10.13;;;;;;;28.50;36.40;102488.56;4952686;28;20077;-49
2021/07/21 08:01:46;;;;;;;18.17;10.25;;;;;;;27.91;38.88;102487.94;4945750;28;20042;-48
2021/07/21 08:04:12;;;;;;;14.15;9.50;;;;;;;28.15;39.98;102484.47;4941265;28;20027;-53
2021/07/21 08:06:37;;;;;;;13.05;8.77;;;;;;;27.88;37.16;102485.34;4943855;28;20376;-48
2021/07/21 08:09:12;;;;;;;17.30;8.85;;;;;;;27.63;40.19;102485.28;4938002;28;20093;-50
2021/07/21 08:11:38;;;;;;;12.77;8.77;;;;;;;27.90;41.32;102485.31;4943510;28;20032;-50
2021/07/21 08:14:03;;;;;;;18.67;9.43;;;;;;;28.14;40.50;102489.88;4940439;28;20030;-49
2021/07/21 08:16:28;;;;;;;12.93;8.63;;;;;;;28.63;38.19;102480.97;4941110;28;20046;-49
2021/07/21 08:18:54;;;;;;;16.10;9.80;;;;;;;28.87;34.55;102480.09;4940617;28;20122;-49
2021/07/21 08:21:19;;;;;;;13.85;8.75;;;;;;;28.87;37.95;102484.56;4928592;28;20060;-52
2021/07/21 08:23:44;;;;;;;15.70;9.15;;;;;;;28.79;35.33;102484.00;4940440;28;20110;-50
2021/07/21 08:26:10;;;;;;;14.30;8.85;;;;;;;28.41;38.95;102490.72;4942483;28;20527;-52
2021/07/21 08:28:38;;;;;;;18.50;9.02;;;;;;;27.84;36.95;102487.28;4951433;28;20654;-51
2021/07/21 08:31:04;;;;;;;13.95;8.70;;;;;;;28.32;37.41;102478.50;4923854;28;20039;-49
2021/07/21 08:33:29;;;;;;;14.98;8.70;;;;;;;28.44;39.86;102485.22;4945548;28;20544;-47
2021/07/21 08:35:55;;;;;;;14.38;8.75;;;;;;;28.65;36.54;102496.09;4962944;28;20070;-50
2021/07/21 08:38:20;;;;;;;13.35;8.13;;;;;;;28.94;35.48;102486.09;4940717;28;20576;-51
2021/07/21 08:40:55;;;;;;;13.27;8.70;;;;;;;28.63;35.07;102481.84;4939386;28;20698;-48
2021/07/21 08:43:42;;;;;;;13.48;8.25;;;;;;;28.41;35.87;102488.03;4941555;28;20040;-48
2021/07/21 08:46:08;;;;;;;12.15;8.38;;;;;;;28.31;36.68;102491.97;4940638;28;20070;-51
2021/07/21 08:48:33;;;;;;;16.00;9.10;;;;;;;28.19;37.68;102488.78;4928079;28;20080;-48
2021/07/21 08:50:58;;;;;;;15.48;9.02;;;;;;;27.76;36.41;102488.44;4938357;28;20082;-51
2021/07/21 08:53:24;;;;;;;13.43;9.18;;;;;;;26.96;39.48;102491.78;4945709;28;20023;-51
2021/07/21 08:55:50;;;;;;;18.27;9.15;;;;;;;26.71;41.05;102496.09;4951180;28;20031;-49
2021/07/21 08:58:18;;;;;;;15.70;9.00;;;;;;;26.82;44.31;102494.84;4957876;28;20163;-52
2021/07/21 09:00:43;;;;;;;13.60;9.13;;;;;;;26.94;38.96;102488.31;4952796;28;20050;-51
2021/07/21 09:03:09;;;;;;;12.73;8.90;;;;;;;26.73;42.59;102496.91;4963173;28;20440;-48
2021/07/21 09:05:34;;;;;;;17.63;9.40;;;;;;;26.93;38.86;102483.88;4944384;28;20608;-51
2021/07/21 09:08:00;;;;;;;17.33;9.93;;;;;;;26.63;44.09;102494.50;4951243;28;20536;-49
2021/07/21 09:10:25;;;;;;;15.45;9.43;;;;;;;26.61;41.78;102495.44;4944944;28;20039;-51
2021/07/21 09:12:53;;;;;;;17.60;10.38;;;;;;;26.13;42.77;102503.84;4943030;28;20088;-49
2021/07/21 09:15:22;;;;;;;15.25;9.80;;;;;;;25.91;42.46;102507.09;4933554;28;20039;-48
2021/07/21 09:18:15;;;;;;;24.02;10.38;;;;;;;25.68;42.64;102497.81;4947422;28;20486;-47
2021/07/21 09:20:44;;;;;;;15.73;9.50;;;;;;;25.92;41.24;102503.50;4930528;28;20034;-51
2021/07/21 09:23:10;;;;;;;19.98;10.05;;;;;;;25.95;41.53;102503.41;4939481;28;20027;-51
2021/07/21 09:25:37;;;;;;;14.57;9.40;;;;;;;26.11;39.47;102507.44;4939685;28;20159;-47
2021/07/21 09:28:07;;;;;;;16.58;10.93;;;;;;;25.50;39.34;102506.22;4942864;28;20038;-47
2021/07/21 09:30:35;;;;;;;17.98;9.93;;;;;;;25.61;40.63;102492.69;4943198;28;20387;-48
2021/07/21 09:33:06;;;;;;;13.48;8.65;;;;;;;25.82;40.50;102500.16;4945471;28;20031;-51
2021/07/21 09:35:38;;;;;;;15.80;8.75;;;;;;;26.11;40.37;102504.78;4949168;28;20290;-50
2021/07/21 09:38:12;;;;;;;14.05;8.68;;;;;;;26.58;41.48;102498.22;4942385;28;20027;-49
2021/07/21 09:40:40;;;;;;;14.82;9.95;;;;;;;26.63;38.55;102494.50;4943964;28;20027;-47
2021/07/21 09:43:16;;;;;;;15.73;9.52;;;;;;;26.43;40.68;102494.16;4938836;28;20065;-49
2021/07/21 09:45:43;;;;;;;16.60;9.65;;;;;;;26.48;40.29;102486.88;4949134;28;20038;-52
2021/07/21 09:48:09;;;;;;;13.60;7.90;;;;;;;26.72;41.97;102488.00;4939818;28;20028;-52
2021/07/21 09:50:36;;;;;;;14.10;8.02;;;;;;;27.05;39.96;102488.88;4943230;28;20031;-50
2021/07/21 09:53:05;;;;;;;12.85;8.30;;;;;;;27.04;40.59;102485.31;4940700;28;20423;-47
2021/07/21 09:55:32;;;;;;;14.68;8.38;;;;;;;27.14;41.66;102490.41;4963145;28;20061;-51
2021/07/21 09:58:01;;;;;;;16.08;8.55;;;;;;;26.80;42.74;102490.47;4956236;28;20122;-49
2021/07/21 10:00:28;;;;;;;20.30;9.18;;;;;;;26.90;41.12;102483.94;4924065;28;20037;-49
2021/07/21 10:03:15;;;;;;;14.88;8.35;;;;;;;27.18;39.37;102487.56;4935951;28;20485;-48
2021/07/21 10:05:55;;;;;;;13.73;8.75;;;;;;;27.37;38.67;102494.13;4941410;28;20546;-48
2021/07/21 10:08:43;;;;;;;15.13;8.48;;;;;;;27.43;38.23;102487.69;4945991;28;20065;-48
2021/07/21 10:11:31;;;;;;;12.13;8.18;;;;;;;27.52;39.77;102498.16;4936839;28;20482;-52
2021/07/21 10:14:02;;;;;;;15.25;8.82;;;;;;;27.30;37.99;102495.22;4949528;28;20035;-50
2021/07/21 10:16:37;;;;;;;12.52;8.88;;;;;;;27.36;39.71;102496.84;4940325;28;20043;-51
2021/07/21 10:19:08;;;;;;;12.40;8.10;;;;;;;27.43;40.74;102501.97;4937794;28;20100;-50
2021/07/21 10:21:34;;;;;;;16.00;8.75;;;;;;;27.33;40.93;102491.56;4942318;28;20078;-48
2021/07/21 10:24:00;;;;;;;15.85;10.00;;;;;;;27.33;41.23;102497.81;4938522;28;20034;-48
2021/07/21 10:26:27;;;;;;;17.98;9.98;;;;;;;27.44;38.83;102493.03;4942931;28;21036;-51
2021/07/21 10:28:54;;;;;;;15.63;9.77;;;;;;;27.53;37.63;102494.53;4948072;28;20124;-50
2021/07/21 10:31:21;;;;;;;15.82;9.07;;;;;;;27.66;38.56;102489.66;4942908;28;20055;-49
2021/07/21 10:33:47;;;;;;;16.08;9.88;;;;;;;27.55;39.22;102490.03;4929945;28;20035;-52
2021/07/21 10:36:13;;;;;;;17.48;10.30;;;;;;;27.23;39.28;102493.66;4947238;28;20505;-51
2021/07/21 10:38:38;;;;;;;14.32;8.60;;;;;;;26.76;42.31;102484.34;4928953;28;20035;-48
2021/07/21 10:41:04;;;;;;;16.63;9.90;;;;;;;26.41;40.49;102484.44;4944100;28;20092;-48
2021/07/21 10:43:30;;;;;;;17.65;10.50;;;;;;;25.70;41.72;102490.66;4930137;28;20039;-52
2021/07/21 10:45:55;;;;;;;18.10;10.95;;;;;;;25.50;42.25;102478.63;4937684;28;20023;-48
2021/07/21 10:48:56;;;;;;;17.10;10.55;;;;;;;25.40;42.70;102486.88;4946318;28;20063;-51
2021/07/21 10:51:39;;;;;;;18.02;10.77;;;;;;;25.33;43.76;102484.38;4944080;28;20034;-51
2021/07/21 10:54:17;;;;;;;20.88;11.68;;;;;;;25.26;41.36;102469.41;4949430;28;20023;-51
2021/07/21 10:59:40;;;;;;;21.80;10.88;;;;;;;25.21;42.83;102480.19;4926785;28;20073;-49
2021/07/21 11:02:06;;;;;;;18.77;11.20;;;;;;;25.33;41.25;102471.03;4939822;28;20494;-51
2021/07/21 11:04:45;;;;;;;16.63;9.55;;;;;;;25.64;44.37;102476.56;4955746;28;20034;-47
2021/07/21 11:07:16;;;;;;;13.57;9.13;;;;;;;25.78;43.55;102477.13;4952218;28;20037;-48
2021/07/21 11:09:43;;;;;;;14.60;9.13;;;;;;;26.05;42.92;102475.53;4942801;28;20049;-48
2021/07/21 11:12:11;;;;;;;16.63;9.18;;;;;;;26.32;42.54;102477.53;4941047;28;20354;-51
2021/07/21 11:14:36;;;;;;;15.30;9.80;;;;;;;26.61;40.72;102469.56;4956430;28;20027;-47
2021/07/21 11:17:01;;;;;;;15.55;8.93;;;;;;;26.78;40.58;102476.22;4945158;28;20041;-48
2021/07/21 11:19:31;;;;;;;14.20;9.27;;;;;;;27.06;41.59;102471.88;4946608;28;20459;-50
2021/07/21 11:22:05;;;;;;;16.27;10.13;;;;;;;27.11;38.87;102477.09;4950903;28;20091;-50